Time;durP1;ratioP1;P1;durP2;ratioP2;P2;SDS_P1;SDS_P2;PMS_P1;PMS_P2;Temp;Humidity;BMP_temperature;BMP_pressure;BME280_temperature;BME280_humidity;BME280_pressure;Samples;Min_cycle;Max_cycle;Signal;HPM_P1;HPM_P2
2021/06/08 00:01:36;;;;;;;35.78;30.38;;;17.20;99.90;;;;;;5094366;28;20495;-68
2021/06/08 00:04:02;;;;;;;35.22;28.60;;;17.20;99.90;;;;;;5094235;28;20032;-67
2021/06/08 00:06:27;;;;;;;33.33;28.98;;;17.20;99.90;;;;;;5095231;28;20026;-68
2021/06/08 00:08:53;;;;;;;34.63;28.20;;;17.20;99.90;;;;;;5093601;28;20127;-67
2021/06/08 00:11:20;;;;;;;36.78;28.92;;;17.10;99.90;;;;;;5076610;28;20048;-67
2021/06/08 00:13:47;;;;;;;37.63;31.80;;;17.10;99.90;;;;;;5093527;28;20447;-68
2021/06/08 00:16:13;;;;;;;34.88;30.58;;;17.00;99.90;;;;;;5093088;28;20480;-67
2021/06/08 00:18:38;;;;;;;35.70;29.77;;;17.10;99.90;;;;;;5095290;28;20024;-67
2021/06/08 00:21:04;;;;;;;41.55;32.20;;;17.10;99.90;;;;;;5093748;28;20070;-68
2021/06/08 00:23:37;;;;;;;37.72;30.67;;;17.10;99.90;;;;;;5094908;28;20080;-68
2021/06/08 00:26:03;;;;;;;42.25;31.48;;;17.10;99.90;;;;;;5093864;28;20031;-68
2021/06/08 00:28:28;;;;;;;34.47;29.05;;;17.10;99.90;;;;;;5076458;28;20028;-67
2021/06/08 00:30:54;;;;;;;39.97;31.05;;;17.10;99.90;;;;;;5093217;28;20040;-68
2021/06/08 00:33:20;;;;;;;34.05;30.35;;;17.10;99.90;;;;;;5094406;28;20055;-67
2021/06/08 00:35:45;;;;;;;38.70;31.08;;;17.00;99.90;;;;;;5094751;28;20024;-67
2021/06/08 00:38:11;;;;;;;37.20;31.65;;;17.00;99.90;;;;;;5094920;28;20039;-67
2021/06/08 00:40:42;;;;;;;40.03;32.83;;;17.00;99.90;;;;;;5093394;28;20028;-67
2021/06/08 00:43:08;;;;;;;41.50;32.25;;;17.00;99.90;;;;;;5094274;28;20457;-67
2021/06/08 00:45:33;;;;;;;36.55;31.60;;;17.00;99.90;;;;;;5094194;28;20032;-68
2021/06/08 00:47:59;;;;;;;34.63;29.67;;;17.00;99.90;;;;;;5094747;28;20074;-67
2021/06/08 00:50:25;;;;;;;39.05;31.40;;;17.10;99.90;;;;;;5075961;28;20028;-67
2021/06/08 00:52:52;;;;;;;34.70;30.50;;;17.10;99.90;;;;;;5076557;28;20118;-67
2021/06/08 00:55:18;;;;;;;38.50;32.00;;;17.10;99.90;;;;;;5093179;28;20040;-67
2021/06/08 00:57:44;;;;;;;36.75;30.80;;;17.10;99.90;;;;;;5076082;28;20059;-67
2021/06/08 01:00:11;;;;;;;33.65;28.52;;;17.10;99.90;;;;;;5094548;28;20027;-67
2021/06/08 01:02:36;;;;;;;35.50;29.17;;;17.10;99.90;;;;;;5093035;28;20050;-67
2021/06/08 01:05:04;;;;;;;38.28;30.05;;;17.10;99.90;;;;;;5075759;28;20052;-67
2021/06/08 01:07:32;;;;;;;39.45;31.75;;;17.00;99.90;;;;;;5093909;28;20020;-67
2021/06/08 01:09:58;;;;;;;36.38;30.05;;;17.00;99.90;;;;;;5092615;28;20462;-67
2021/06/08 01:12:24;;;;;;;36.10;30.63;;;16.90;99.90;;;;;;5092903;28;20024;-67
2021/06/08 01:14:50;;;;;;;35.13;29.48;;;16.90;99.90;;;;;;5092488;28;20016;-67
2021/06/08 01:17:16;;;;;;;33.05;29.50;;;17.00;99.90;;;;;;5075947;28;20462;-68
2021/06/08 01:19:41;;;;;;;35.42;29.42;;;17.00;99.90;;;;;;5092377;28;20032;-67
2021/06/08 01:22:08;;;;;;;35.35;29.25;;;16.90;99.90;;;;;;5093705;28;20031;-67
2021/06/08 01:24:33;;;;;;;33.55;29.13;;;16.90;99.90;;;;;;5092753;28;20030;-67
2021/06/08 01:26:59;;;;;;;35.53;30.08;;;16.90;99.90;;;;;;5092851;28;20028;-67
2021/06/08 01:29:26;;;;;;;36.80;29.23;;;16.80;99.90;;;;;;5076046;28;20106;-67
2021/06/08 01:31:57;;;;;;;36.17;30.35;;;16.90;99.90;;;;;;5092184;28;20110;-67
2021/06/08 01:34:24;;;;;;;42.47;31.30;;;16.80;99.90;;;;;;5092912;28;20016;-67
2021/06/08 01:36:50;;;;;;;36.88;30.30;;;16.80;99.90;;;;;;5076095;28;20480;-67
2021/06/08 01:39:15;;;;;;;37.38;31.42;;;16.90;99.90;;;;;;5092737;28;20017;-67
2021/06/08 01:41:42;;;;;;;39.05;31.63;;;16.90;99.90;;;;;;5092229;28;20028;-67
2021/06/08 01:44:08;;;;;;;42.63;32.22;;;16.90;99.90;;;;;;5094017;28;20022;-67
2021/06/08 01:46:33;;;;;;;42.40;32.30;;;16.80;99.90;;;;;;5075379;28;20107;-68
2021/06/08 01:48:59;;;;;;;38.50;32.95;;;16.80;99.90;;;;;;5075453;28;20024;-67
2021/06/08 01:51:48;;;;;;;41.20;32.33;;;16.80;99.90;;;;;;5093875;28;20028;-67
2021/06/08 01:54:44;;;;;;;39.05;32.63;;;16.90;99.90;;;;;;5109235;28;20437;-67
2021/06/08 01:57:27;;;;;;;40.70;31.75;;;16.80;99.90;;;;;;5093305;28;20075;-67
2021/06/08 02:00:04;;;;;;;42.75;32.15;;;16.70;99.90;;;;;;5092885;28;20024;-67
2021/06/08 02:05:50;;;;;;;41.13;32.22;;;16.70;99.90;;;;;;5104760;27;20437;-67
2021/06/08 02:08:40;;;;;;;38.75;30.35;;;16.60;99.90;;;;;;5090006;28;20385;-67
2021/06/08 02:11:11;;;;;;;37.88;30.88;;;16.60;99.90;;;;;;5073457;28;20020;-67
2021/06/08 02:14:02;;;;;;;38.95;30.20;;;16.60;99.90;;;;;;5091225;28;20109;-67
2021/06/08 02:16:46;;;;;;;39.78;29.98;;;16.50;99.90;;;;;;5091125;28;20465;-67
2021/06/08 02:19:13;;;;;;;40.30;29.70;;;16.40;99.90;;;;;;5089913;28;20029;-67
2021/06/08 02:21:43;;;;;;;39.60;28.88;;;16.40;99.90;;;;;;5089858;28;20028;-67
2021/06/08 02:24:15;;;;;;;37.72;28.35;;;16.30;99.90;;;;;;5090632;28;20028;-67
2021/06/08 02:26:42;;;;;;;37.40;27.83;;;16.20;99.90;;;;;;5089724;28;20103;-67
2021/06/08 02:29:09;;;;;;;38.40;28.48;;;16.20;99.90;;;;;;5089763;28;20021;-68
2021/06/08 02:31:35;;;;;;;31.67;24.42;;;16.20;99.90;;;;;;5073154;28;20021;-68
2021/06/08 02:34:02;;;;;;;32.90;25.05;;;16.10;99.90;;;;;;5089298;28;20115;-68
2021/06/08 02:36:29;;;;;;;35.13;24.88;;;16.00;99.90;;;;;;5089235;28;20120;-68
2021/06/08 02:38:57;;;;;;;32.53;24.75;;;15.90;99.90;;;;;;5089582;28;20023;-66
2021/06/08 02:41:24;;;;;;;36.15;24.95;;;15.90;99.90;;;;;;5089098;28;20056;-68
2021/06/08 02:43:52;;;;;;;29.98;24.10;;;15.80;99.90;;;;;;5090556;28;20021;-68
2021/06/08 02:46:21;;;;;;;32.38;24.08;;;15.60;99.90;;;;;;5089124;28;20466;-68
2021/06/08 02:48:47;;;;;;;30.67;23.55;;;15.50;99.90;;;;;;5091115;28;20403;-68
2021/06/08 02:51:13;;;;;;;29.60;22.17;;;15.40;99.90;;;;;;5089297;28;20476;-68
2021/06/08 02:53:40;;;;;;;29.33;23.20;;;15.30;99.90;;;;;;5090427;28;20067;-67
2021/06/08 02:56:06;;;;;;;33.92;23.80;;;15.10;99.90;;;;;;5072017;28;20105;-67
2021/06/08 02:58:34;;;;;;;30.30;23.33;;;15.10;99.90;;;;;;5071893;28;20048;-67
2021/06/08 03:01:00;;;;;;;30.05;22.65;;;14.90;99.90;;;;;;5088828;28;20032;-67
2021/06/08 03:03:33;;;;;;;29.13;22.30;;;14.80;99.90;;;;;;5088832;28;20064;-68
2021/06/08 03:06:04;;;;;;;31.70;23.00;;;14.70;99.90;;;;;;5089134;28;20076;-68
2021/06/08 03:08:36;;;;;;;30.98;23.60;;;14.70;99.90;;;;;;5088792;28;20024;-67
2021/06/08 03:11:09;;;;;;;29.73;22.67;;;14.60;99.90;;;;;;5071502;28;20059;-67
2021/06/08 03:13:36;;;;;;;32.40;22.80;;;14.50;99.90;;;;;;5072125;28;20059;-68
2021/06/08 03:16:03;;;;;;;26.58;20.98;;;14.50;99.90;;;;;;5081264;28;20473;-67
2021/06/08 03:18:31;;;;;;;30.30;22.17;;;14.30;99.90;;;;;;5058311;28;20486;-67
2021/06/08 03:21:03;;;;;;;29.02;21.58;;;14.30;99.90;;;;;;5074857;28;20025;-67
2021/06/08 03:23:37;;;;;;;30.73;21.20;;;14.20;99.90;;;;;;5058671;28;20113;-67
2021/06/08 03:26:05;;;;;;;32.15;21.95;;;14.20;99.90;;;;;;5074892;28;20025;-67
2021/06/08 03:28:32;;;;;;;28.58;21.23;;;14.10;99.90;;;;;;5058683;28;20021;-68
2021/06/08 03:30:58;;;;;;;32.30;22.52;;;14.10;99.90;;;;;;5075111;28;20020;-68
2021/06/08 03:33:25;;;;;;;31.75;22.83;;;14.00;99.90;;;;;;5076216;28;20493;-67
2021/06/08 03:35:54;;;;;;;31.27;22.73;;;14.00;99.90;;;;;;5074935;28;20020;-67
2021/06/08 03:38:22;;;;;;;30.38;22.10;;;13.90;99.90;;;;;;5076103;28;20039;-67
2021/06/08 03:40:49;;;;;;;26.92;21.27;;;13.80;99.90;;;;;;5076331;28;20020;-67
2021/06/08 03:43:15;;;;;;;35.20;21.95;;;13.80;99.90;;;;;;5074751;28;20032;-67
2021/06/08 03:45:45;;;;;;;28.83;22.13;;;13.80;99.90;;;;;;5074800;28;20021;-67
2021/06/08 03:48:13;;;;;;;31.50;23.00;;;13.80;99.90;;;;;;5074756;28;20051;-67
2021/06/08 03:50:38;;;;;;;30.00;22.50;;;13.70;99.90;;;;;;5075889;28;20016;-67
2021/06/08 03:53:04;;;;;;;31.92;23.60;;;13.60;99.90;;;;;;5075533;28;20038;-67
2021/06/08 03:55:30;;;;;;;32.22;23.52;;;13.60;99.90;;;;;;5074350;28;20117;-67
2021/06/08 03:57:56;;;;;;;33.25;23.33;;;13.60;99.90;;;;;;5057788;28;20056;-67
2021/06/08 04:00:24;;;;;;;32.33;23.90;;;13.60;99.90;;;;;;5075703;28;20374;-67
2021/06/08 04:02:51;;;;;;;31.33;23.60;;;13.60;99.90;;;;;;5075690;28;20021;-67
2021/06/08 04:05:17;;;;;;;34.85;25.63;;;13.50;99.90;;;;;;5075330;28;20040;-67
2021/06/08 04:07:46;;;;;;;39.20;27.83;;;13.50;99.90;;;;;;5074720;28;20066;-67
2021/06/08 04:10:19;;;;;;;45.65;31.65;;;13.50;99.90;;;;;;5057760;28;20473;-67
2021/06/08 04:12:45;;;;;;;48.53;33.53;;;13.60;99.90;;;;;;5075530;28;20024;-67
2021/06/08 04:15:11;;;;;;;46.58;32.92;;;13.70;99.90;;;;;;5075745;28;20256;-67
2021/06/08 04:17:38;;;;;;;47.92;33.78;;;13.70;99.90;;;;;;5075120;28;20535;-67
2021/06/08 04:20:05;;;;;;;50.08;33.17;;;13.80;99.90;;;;;;5074173;28;20028;-67
2021/06/08 04:22:33;;;;;;;51.33;34.72;;;13.90;99.90;;;;;;5057071;28;20032;-67
2021/06/08 04:24:59;;;;;;;47.05;33.28;;;14.00;99.90;;;;;;5057679;28;20137;-68
2021/06/08 04:27:26;;;;;;;46.47;33.95;;;14.00;99.90;;;;;;5073336;28;20046;-67
2021/06/08 04:29:52;;;;;;;46.55;35.30;;;14.00;99.90;;;;;;5073919;28;20013;-68
2021/06/08 04:32:19;;;;;;;51.70;36.55;;;14.20;99.90;;;;;;5074402;28;20474;-68
2021/06/08 04:34:50;;;;;;;54.00;36.90;;;14.30;99.90;;;;;;5056903;28;20451;-67
2021/06/08 04:37:16;;;;;;;50.47;36.90;;;14.50;99.90;;;;;;5056770;28;20020;-67
2021/06/08 04:39:42;;;;;;;51.90;35.88;;;14.60;99.90;;;;;;5074867;28;20032;-68
2021/06/08 04:42:11;;;;;;;49.55;36.70;;;14.70;99.90;;;;;;5073960;28;20047;-67
2021/06/08 04:44:40;;;;;;;52.08;37.67;;;14.80;99.90;;;;;;5073271;28;20028;-68
2021/06/08 04:47:06;;;;;;;50.20;36.38;;;14.80;99.90;;;;;;5073345;28;20473;-67
2021/06/08 04:49:32;;;;;;;47.35;35.08;;;14.90;99.90;;;;;;5056554;28;20021;-67
2021/06/08 04:51:58;;;;;;;48.92;34.33;;;15.00;99.90;;;;;;5056468;28;20056;-67
2021/06/08 04:54:25;;;;;;;46.08;33.47;;;15.00;99.90;;;;;;5056444;28;20035;-67
2021/06/08 04:56:51;;;;;;;46.70;32.70;;;15.10;99.90;;;;;;5056532;28;20106;-67
2021/06/08 04:59:21;;;;;;;45.50;32.38;;;15.00;99.90;;;;;;5072981;28;20035;-68
2021/06/08 05:01:49;;;;;;;39.95;30.60;;;15.10;99.90;;;;;;5057624;28;20031;-67
2021/06/08 05:04:19;;;;;;;39.08;29.77;;;15.20;99.90;;;;;;5073026;28;20047;-68
2021/06/08 05:06:52;;;;;;;40.38;29.95;;;15.30;99.90;;;;;;5074086;28;20021;-67
2021/06/08 05:09:21;;;;;;;42.88;30.90;;;15.30;99.90;;;;;;5056163;28;20021;-68
2021/06/08 05:11:53;;;;;;;40.40;30.80;;;15.20;99.90;;;;;;5074531;28;20458;-68
2021/06/08 05:14:20;;;;;;;40.60;30.98;;;15.20;99.90;;;;;;5074543;28;20099;-68
2021/06/08 05:16:48;;;;;;;41.65;31.45;;;15.30;99.90;;;;;;5073056;28;20020;-67
2021/06/08 05:19:16;;;;;;;41.30;32.35;;;15.40;99.90;;;;;;5055979;28;20024;-67
2021/06/08 05:21:44;;;;;;;43.40;32.20;;;15.40;99.90;;;;;;5056135;28;20417;-67
2021/06/08 05:24:11;;;;;;;42.33;31.60;;;15.40;99.90;;;;;;5072847;28;20195;-68
2021/06/08 05:26:39;;;;;;;38.67;31.15;;;15.40;99.90;;;;;;5072858;28;20012;-68
2021/06/08 05:29:07;;;;;;;44.47;30.98;;;15.40;99.90;;;;;;5072834;28;20051;-68
2021/06/08 05:31:33;;;;;;;41.67;31.90;;;15.50;99.90;;;;;;5056341;28;20024;-68
2021/06/08 05:33:59;;;;;;;49.05;33.45;;;15.50;99.90;;;;;;5055852;28;20473;-68
2021/06/08 05:36:30;;;;;;;41.83;33.65;;;15.40;99.90;;;;;;5073576;28;20043;-68
2021/06/08 05:38:56;;;;;;;47.45;32.63;;;15.30;99.90;;;;;;5055549;28;20162;-68
2021/06/08 05:41:21;;;;;;;42.08;31.95;;;15.40;99.90;;;;;;5072322;28;20056;-68
2021/06/08 05:43:50;;;;;;;41.35;32.33;;;15.50;99.90;;;;;;5072302;28;20035;-68
2021/06/08 05:46:16;;;;;;;45.53;33.42;;;15.60;99.90;;;;;;5073806;28;20016;-68
2021/06/08 05:48:42;;;;;;;47.38;33.78;;;15.50;99.90;;;;;;5055546;28;20518;-68
2021/06/08 05:51:09;;;;;;;46.83;32.28;;;15.60;99.90;;;;;;5074007;28;20048;-68
2021/06/08 05:53:39;;;;;;;41.47;32.40;;;15.70;99.90;;;;;;5073724;28;20059;-68
2021/06/08 05:56:05;;;;;;;47.45;31.33;;;15.80;99.90;;;;;;5055669;28;20029;-68
2021/06/08 05:58:32;;;;;;;42.55;31.67;;;15.80;99.90;;;;;;5055529;28;20024;-66
2021/06/08 06:01:00;;;;;;;41.28;31.75;;;15.80;99.90;;;;;;5072725;28;20044;-67
2021/06/08 06:03:27;;;;;;;42.40;32.50;;;15.80;99.90;;;;;;5072132;28;20075;-66
2021/06/08 06:05:55;;;;;;;45.42;32.90;;;15.60;99.90;;;;;;5071873;28;20024;-67
2021/06/08 06:08:21;;;;;;;47.67;31.70;;;15.70;99.90;;;;;;5074053;28;20032;-66
2021/06/08 06:10:46;;;;;;;42.85;31.20;;;15.70;99.90;;;;;;5073474;28;20024;-68
2021/06/08 06:13:14;;;;;;;39.42;31.33;;;15.80;99.90;;;;;;5073790;28;20518;-67
2021/06/08 06:15:40;;;;;;;41.92;31.23;;;15.90;99.90;;;;;;5072097;28;20025;-67
2021/06/08 06:18:08;;;;;;;41.17;30.83;;;15.90;99.90;;;;;;5073477;28;20021;-67
2021/06/08 06:20:34;;;;;;;41.13;30.00;;;16.00;99.90;;;;;;5073222;28;20095;-67
2021/06/08 06:23:00;;;;;;;40.90;30.67;;;15.90;99.90;;;;;;5071629;28;20083;-67
2021/06/08 06:25:27;;;;;;;41.70;31.88;;;15.90;99.90;;;;;;5051678;28;20390;-69
2021/06/08 06:27:52;;;;;;;39.17;30.67;;;15.90;99.90;;;;;;5060730;28;20027;-67
2021/06/08 06:30:19;;;;;;;42.70;30.63;;;15.90;99.90;;;;;;5069393;28;20025;-68
2021/06/08 06:32:45;;;;;;;38.72;31.20;;;16.00;99.90;;;;;;5050101;28;20025;-67
2021/06/08 06:35:12;;;;;;;40.53;30.75;;;16.10;99.90;;;;;;5071676;28;20030;-68
2021/06/08 06:37:41;;;;;;;38.97;28.75;;;16.30;99.90;;;;;;5070648;28;20124;-67
2021/06/08 06:40:12;;;;;;;35.40;27.27;;;16.40;99.90;;;;;;5072031;28;20016;-68
2021/06/08 06:42:42;;;;;;;33.72;27.00;;;16.50;99.90;;;;;;5052552;28;20119;-68
2021/06/08 06:45:09;;;;;;;34.05;26.77;;;16.60;99.90;;;;;;5071818;28;20052;-67
2021/06/08 06:47:37;;;;;;;36.60;25.67;;;16.80;99.90;;;;;;5071896;28;20509;-66
2021/06/08 06:50:06;;;;;;;34.17;25.55;;;16.70;99.90;;;;;;5072755;28;20030;-67
2021/06/08 06:52:33;;;;;;;28.70;23.63;;;16.80;99.90;;;;;;5073656;28;20078;-67
2021/06/08 06:54:59;;;;;;;30.05;24.52;;;16.90;99.90;;;;;;5076267;28;20137;-67
2021/06/08 06:57:25;;;;;;;34.17;24.88;;;17.10;99.90;;;;;;5075783;28;20032;-68
2021/06/08 06:59:50;;;;;;;30.40;24.17;;;17.10;99.90;;;;;;5075357;28;20385;-68
2021/06/08 07:02:21;;;;;;;30.15;24.35;;;17.10;99.90;;;;;;5074285;28;20023;-67
2021/06/08 07:04:48;;;;;;;32.13;24.33;;;17.20;99.90;;;;;;5074098;28;20048;-68
2021/06/08 07:07:19;;;;;;;31.20;25.58;;;17.20;99.90;;;;;;5058298;28;20436;-68
2021/06/08 07:09:46;;;;;;;28.38;23.23;;;17.30;99.90;;;;;;5054868;28;20032;-68
2021/06/08 07:12:12;;;;;;;27.88;23.08;;;17.30;99.90;;;;;;5072832;28;20077;-67
2021/06/08 07:14:41;;;;;;;26.67;22.58;;;17.30;99.90;;;;;;5074861;28;20047;-67
2021/06/08 07:17:07;;;;;;;26.60;21.95;;;17.40;99.90;;;;;;5053880;28;20066;-68
2021/06/08 07:19:34;;;;;;;27.70;21.63;;;17.50;99.90;;;;;;5063356;28;20119;-68
2021/06/08 07:22:00;;;;;;;28.55;22.02;;;17.70;99.90;;;;;;5037917;28;20029;-68
2021/06/08 07:24:27;;;;;;;25.75;21.65;;;17.80;99.90;;;;;;5044848;28;20028;-68
2021/06/08 07:26:53;;;;;;;28.13;20.05;;;17.90;99.90;;;;;;5066003;28;20016;-68
2021/06/08 07:29:19;;;;;;;25.38;20.38;;;17.80;99.90;;;;;;5074644;28;20484;-68
2021/06/08 07:32:06;;;;;;;26.02;18.05;;;17.60;99.90;;;;;;5075741;28;20028;-68
2021/06/08 07:34:38;;;;;;;26.67;18.58;;;17.90;99.90;;;;;;5074490;28;20031;-68
2021/06/08 07:37:07;;;;;;;25.25;18.13;;;18.00;99.90;;;;;;5072085;28;20024;-68
2021/06/08 07:39:46;;;;;;;23.48;16.77;;;18.20;99.90;;;;;;5051356;28;20028;-68
2021/06/08 07:42:19;;;;;;;21.70;16.05;;;18.30;99.90;;;;;;5072563;28;20450;-68
2021/06/08 07:45:06;;;;;;;18.55;15.32;;;18.40;99.90;;;;;;5072752;28;20028;-67
2021/06/08 07:47:32;;;;;;;22.35;16.67;;;18.40;99.90;;;;;;5074375;28;20021;-68
2021/06/08 07:50:01;;;;;;;22.05;16.40;;;18.50;99.90;;;;;;5074753;28;20040;-68
2021/06/08 07:52:46;;;;;;;24.10;16.27;;;18.70;99.90;;;;;;5057504;28;20021;-69
2021/06/08 07:55:13;;;;;;;21.27;16.42;;;19.00;99.90;;;;;;5072331;28;20078;-68
2021/06/08 07:57:39;;;;;;;20.52;16.17;;;19.10;99.90;;;;;;5071282;28;20436;-68
2021/06/08 08:00:07;;;;;;;22.85;16.13;;;19.10;99.90;;;;;;5072249;28;20410;-68
2021/06/08 08:02:33;;;;;;;18.65;16.17;;;19.20;99.90;;;;;;5056250;28;20473;-68
2021/06/08 08:05:07;;;;;;;21.25;16.48;;;19.30;99.90;;;;;;5073039;28;20117;-67
2021/06/08 08:07:34;;;;;;;21.58;16.73;;;18.90;99.90;;;;;;5073783;28;20020;-67
2021/06/08 08:10:00;;;;;;;23.17;17.00;;;18.90;99.90;;;;;;5073246;28;20028;-67
2021/06/08 08:12:26;;;;;;;23.70;17.25;;;19.10;99.90;;;;;;5071949;28;20055;-67
2021/06/08 08:14:52;;;;;;;19.35;16.73;;;19.20;99.90;;;;;;5073911;28;20031;-67
2021/06/08 08:17:22;;;;;;;24.58;17.27;;;19.10;99.90;;;;;;5073142;28;20044;-67
2021/06/08 08:19:48;;;;;;;19.38;17.00;;;19.20;99.90;;;;;;5073390;28;20020;-67
2021/06/08 08:22:13;;;;;;;23.73;17.83;;;19.10;99.90;;;;;;5054517;28;20100;-67
2021/06/08 08:24:39;;;;;;;21.67;17.15;;;18.90;99.90;;;;;;5053434;28;20627;-67
2021/06/08 08:27:07;;;;;;;24.00;18.15;;;18.80;99.90;;;;;;5038679;28;20024;-68
2021/06/08 08:29:34;;;;;;;23.48;18.13;;;18.70;99.90;;;;;;5072256;28;20033;-67
2021/06/08 08:32:04;;;;;;;23.55;18.10;;;18.80;99.90;;;;;;5071094;28;20021;-67
2021/06/08 08:34:30;;;;;;;22.30;18.08;;;18.90;99.90;;;;;;5071986;28;20020;-67
2021/06/08 08:36:56;;;;;;;23.10;17.65;;;19.20;99.90;;;;;;5054288;28;20501;-67
2021/06/08 08:39:22;;;;;;;23.67;17.58;;;19.20;99.90;;;;;;5052263;28;20438;-67
2021/06/08 08:41:52;;;;;;;25.52;18.33;;;19.40;99.90;;;;;;5072672;28;20103;-67
2021/06/08 08:44:17;;;;;;;23.35;18.00;;;19.40;99.90;;;;;;5073443;28;20033;-67
2021/06/08 08:46:43;;;;;;;25.27;18.27;;;19.70;99.90;;;;;;5035901;28;20025;-67
2021/06/08 08:49:09;;;;;;;23.88;17.10;;;19.70;99.90;;;;;;5053393;28;20056;-67
2021/06/08 08:51:38;;;;;;;23.80;17.10;;;19.80;99.90;;;;;;5067680;28;20374;-67
2021/06/08 08:54:04;;;;;;;20.33;16.52;;;20.10;99.90;;;;;;5071872;28;20547;-67
2021/06/08 08:56:33;;;;;;;19.67;16.80;;;20.00;99.90;;;;;;5056140;28;20039;-67
2021/06/08 08:59:04;;;;;;;26.73;17.50;;;20.40;99.90;;;;;;5072281;28;20033;-67
2021/06/08 09:01:30;;;;;;;24.33;19.05;;;20.80;99.90;;;;;;5071159;28;20381;-67
2021/06/08 09:03:56;;;;;;;21.23;18.55;;;20.60;99.90;;;;;;5038628;28;20048;-67
2021/06/08 09:06:22;;;;;;;24.00;19.17;;;20.70;99.90;;;;;;5072460;28;20542;-69
2021/06/08 09:08:48;;;;;;;23.17;18.52;;;21.10;99.90;;;;;;5073910;28;20024;-66
2021/06/08 09:11:14;;;;;;;25.70;18.63;;;21.80;99.90;;;;;;5052494;28;20366;-68
2021/06/08 09:13:41;;;;;;;20.90;18.17;;;22.20;99.90;;;;;;5066851;28;20036;-66
2021/06/08 09:16:09;;;;;;;25.02;19.23;;;22.10;99.90;;;;;;5055966;28;20178;-67
2021/06/08 09:18:35;;;;;;;21.15;18.45;;;22.50;99.90;;;;;;5073661;28;20028;-67
2021/06/08 09:21:25;;;;;;;21.02;18.08;;;22.50;99.90;;;;;;5056570;28;20093;-68
2021/06/08 09:23:51;;;;;;;20.02;16.83;;;22.70;99.90;;;;;;5073052;28;20055;-67
2021/06/08 09:26:18;;;;;;;21.85;18.05;;;22.80;99.90;;;;;;5073452;28;20024;-66
2021/06/08 09:28:45;;;;;;;22.98;16.48;;;23.50;99.90;;;;;;5072952;28;20020;-66
2021/06/08 09:31:21;;;;;;;17.33;15.55;;;24.10;99.90;;;;;;5073126;28;20031;-66
2021/06/08 09:33:49;;;;;;;17.48;15.57;;;24.30;99.90;;;;;;5038863;28;20029;-66
2021/06/08 09:36:17;;;;;;;18.90;16.52;;;23.30;99.90;;;;;;5071475;28;20382;-67
2021/06/08 09:38:52;;;;;;;18.13;16.23;;;23.40;99.90;;;;;;5071540;28;20040;-67
2021/06/08 09:41:28;;;;;;;18.27;15.65;;;23.10;99.90;;;;;;5073130;28;20040;-67
2021/06/08 09:44:14;;;;;;;18.40;16.50;;;24.00;99.90;;;;;;5073422;28;20035;-67
2021/06/08 09:46:45;;;;;;;17.98;16.00;;;24.30;99.90;;;;;;5072488;28;20025;-67
2021/06/08 09:49:14;;;;;;;20.67;16.65;;;24.70;99.90;;;;;;5071991;28;20025;-67
2021/06/08 09:51:57;;;;;;;18.15;16.27;;;24.60;99.90;;;;;;5072104;28;20023;-66
2021/06/08 09:54:23;;;;;;;;;;;24.90;99.90;;;;;;5073677;28;20074;-66
2021/06/08 09:56:49;;;;;;;18.92;16.05;;;24.40;99.90;;;;;;5073494;28;19908;-66
2021/06/08 09:59:15;;;;;;;20.25;17.45;;;24.80;99.90;;;;;;5072802;28;20032;-66
2021/06/08 10:01:40;;;;;;;20.73;16.35;;;24.70;99.90;;;;;;5051440;28;20044;-66
2021/06/08 10:04:06;;;;;;;20.95;16.85;;;25.20;99.90;;;;;;5067983;28;20041;-66
2021/06/08 10:06:37;;;;;;;21.00;16.65;;;24.80;99.90;;;;;;5073095;28;20035;-66
2021/06/08 10:09:07;;;;;;;22.15;18.00;;;25.00;99.90;;;;;;5072819;28;20016;-66
2021/06/08 10:11:35;;;;;;;22.70;19.05;;;24.80;99.90;;;;;;5072288;28;20021;-66
2021/06/08 10:14:13;;;;;;;20.33;17.17;;;25.60;99.90;;;;;;5072337;28;20273;-66
2021/06/08 10:16:39;;;;;;;18.35;16.17;;;26.20;99.90;;;;;;5054938;28;20041;-67
2021/06/08 10:19:05;;;;;;;19.23;17.15;;;26.20;99.90;;;;;;5070575;28;20031;-66
2021/06/08 10:21:45;;;;;;;20.08;16.80;;;26.10;99.90;;;;;;5070916;28;20033;-67
2021/06/08 10:24:18;;;;;;;17.77;15.18;;;26.00;99.90;;;;;;5070481;28;20037;-67
2021/06/08 10:26:50;;;;;;;19.83;17.85;;;25.80;99.90;;;;;;5056520;28;20112;-67
2021/06/08 10:29:16;;;;;;;19.50;17.40;;;25.70;99.90;;;;;;5074733;28;20385;-67
2021/06/08 10:31:43;;;;;;;25.00;22.30;;;25.70;99.90;;;;;;5075287;28;20021;-67
2021/06/08 10:34:11;;;;;;;20.48;17.63;;;25.80;99.90;;;;;;5075390;28;20088;-67
2021/06/08 10:36:39;;;;;;;19.80;16.90;;;25.60;99.90;;;;;;5076898;28;20070;-67
2021/06/08 10:39:08;;;;;;;20.17;17.98;;;26.40;99.90;;;;;;5075096;28;20025;-67
2021/06/08 10:41:36;;;;;;;22.55;17.73;;;26.00;99.90;;;;;;5074650;28;20073;-67
2021/06/08 10:44:05;;;;;;;21.55;16.88;;;26.00;99.90;;;;;;5077034;28;20024;-67
2021/06/08 10:46:40;;;;;;;20.48;18.27;;;25.40;99.90;;;;;;5075161;28;20089;-67
2021/06/08 10:49:06;;;;;;;19.98;17.90;;;24.70;99.90;;;;;;5075355;28;20059;-67
2021/06/08 10:51:35;;;;;;;21.77;18.60;;;24.80;99.90;;;;;;5074656;28;20056;-67
2021/06/08 10:54:02;;;;;;;21.40;18.70;;;25.00;99.90;;;;;;5074691;28;20048;-67
2021/06/08 10:56:35;;;;;;;21.75;19.30;;;25.40;99.90;;;;;;5073842;28;20085;-67
2021/06/08 10:59:03;;;;;;;20.55;17.50;;;25.70;99.90;;;;;;5074920;28;20036;-67
2021/06/08 11:06:57;;;;;;;21.30;18.27;;;25.40;99.90;;;;;;5106498;27;20141;-67
2021/06/08 11:12:24;;;;;;;17.23;15.43;;;24.20;99.90;;;;;;5127524;27;20562;-67
2021/06/08 11:14:58;;;;;;;20.52;18.17;;;24.30;99.90;;;;;;5110375;28;20023;-68
2021/06/08 11:17:30;;;;;;;23.13;19.23;;;24.50;99.90;;;;;;5109940;28;20028;-68
2021/06/08 11:19:58;;;;;;;22.85;20.00;;;24.70;99.90;;;;;;5109430;28;20039;-67
2021/06/08 11:22:48;;;;;;;22.67;20.23;;;24.90;99.90;;;;;;5110908;28;20038;-68
2021/06/08 11:28:11;;;;;;;26.20;20.65;;;24.90;99.90;;;;;;5122811;27;20132;-67
2021/06/08 11:30:43;;;;;;;25.50;21.13;;;24.30;99.90;;;;;;5095994;28;20027;-66
2021/06/08 11:33:35;;;;;;;24.85;20.27;;;24.60;99.90;;;;;;5103627;28;20036;-67
2021/06/08 11:36:03;;;;;;;22.00;19.50;;;24.70;99.90;;;;;;5089084;28;20470;-67
2021/06/08 11:38:33;;;;;;;21.40;17.08;;;25.10;99.90;;;;;;5094731;28;20028;-67
2021/06/08 11:41:04;;;;;;;21.88;16.90;;;24.80;99.90;;;;;;5106001;28;20040;-67
2021/06/08 11:46:18;;;;;;;21.35;16.90;;;24.60;99.90;;;;;;5120228;27;20516;-66
2021/06/08 11:48:46;;;;;;;;;;;25.10;99.90;;;;;;5109711;28;20027;-66
2021/06/08 11:51:22;;;;;;;25.35;19.80;;;25.20;99.90;;;;;;5110900;28;19993;-66
2021/06/08 11:54:08;;;;;;;25.15;20.83;;;24.60;99.90;;;;;;5109009;28;20055;-66
2021/06/08 11:59:30;;;;;;;23.45;19.63;;;25.10;99.90;;;;;;5126601;27;20137;-67
2021/06/08 12:02:36;;;;;;;22.95;18.85;;;25.10;99.90;;;;;;5111054;28;20027;-67
2021/06/08 12:05:17;;;;;;;21.40;19.10;;;25.50;99.90;;;;;;5109403;28;20085;-67
2021/06/08 12:07:50;;;;;;;22.70;19.95;;;25.60;99.90;;;;;;5109516;28;20031;-67
2021/06/08 12:10:28;;;;;;;24.83;18.77;;;25.20;99.90;;;;;;5109054;28;20019;-67
2021/06/08 12:12:54;;;;;;;23.08;20.40;;;25.30;99.90;;;;;;5110536;28;20024;-67
2021/06/08 12:15:23;;;;;;;21.67;19.35;;;24.50;99.90;;;;;;5109512;28;20399;-67
2021/06/08 12:18:12;;;;;;;24.75;20.70;;;24.00;99.90;;;;;;5109866;28;20032;-67
2021/06/08 12:20:41;;;;;;;23.80;20.83;;;24.10;99.90;;;;;;5109063;28;20027;-67
2021/06/08 12:23:08;;;;;;;23.40;20.75;;;24.40;99.90;;;;;;5110609;28;20051;-67
2021/06/08 12:25:34;;;;;;;24.25;20.90;;;24.60;99.90;;;;;;5092085;28;20027;-67
2021/06/08 12:28:01;;;;;;;21.85;19.55;;;24.80;99.90;;;;;;5109776;28;20028;-67
2021/06/08 12:30:30;;;;;;;27.60;21.75;;;24.60;99.90;;;;;;5091976;28;20031;-67
2021/06/08 12:32:59;;;;;;;25.05;22.02;;;24.60;99.90;;;;;;5110143;28;20035;-67
2021/06/08 12:35:32;;;;;;;24.83;22.23;;;24.40;99.90;;;;;;5108727;28;20123;-67
2021/06/08 12:38:20;;;;;;;23.80;20.73;;;24.40;99.90;;;;;;5102683;28;20039;-67
2021/06/08 12:41:08;;;;;;;26.50;21.08;;;24.40;99.90;;;;;;5110390;28;20095;-67
2021/06/08 12:43:48;;;;;;;26.13;22.77;;;24.40;99.90;;;;;;5108522;28;20020;-67
2021/06/08 12:46:28;;;;;;;26.23;22.83;;;24.50;99.90;;;;;;5110030;28;20020;-67
2021/06/08 12:49:15;;;;;;;25.60;21.15;;;24.80;99.90;;;;;;5092336;28;20488;-67
2021/06/08 12:51:45;;;;;;;24.08;21.20;;;24.90;99.90;;;;;;5108057;28;20028;-67
2021/06/08 12:54:28;;;;;;;28.15;22.73;;;24.20;99.90;;;;;;5070916;28;20477;-67
2021/06/08 12:56:54;;;;;;;22.77;20.33;;;24.30;99.90;;;;;;5103284;28;20385;-67
2021/06/08 12:59:24;;;;;;;21.70;19.17;;;24.80;99.90;;;;;;5088228;28;20051;-66